sensor_id;sensor_type;location;lat;lon;timestamp;P1;durP1;ratioP1;P2;durP2;ratioP2
44646;SDS011;56315;-33.902;151.160;2023-02-28T00:01:31;7.30;;;1.45;;
44646;SDS011;56315;-33.902;151.160;2023-02-28T00:03:59;4.68;;;1.70;;
44646;SDS011;56315;-33.902;151.160;2023-02-28T00:06:26;7.32;;;1.63;;
44646;SDS011;56315;-33.902;151.160;2023-02-28T00:08:54;5.88;;;1.50;;
44646;SDS011;56315;-33.902;151.160;2023-02-28T00:11:22;5.32;;;1.50;;
44646;SDS011;56315;-33.902;151.160;2023-02-28T00:13:49;12.45;;;2.88;;
44646;SDS011;56315;-33.902;151.160;2023-02-28T00:16:20;8.93;;;1.95;;
44646;SDS011;56315;-33.902;151.160;2023-02-28T00:18:48;10.43;;;2.72;;
44646;SDS011;56315;-33.902;151.160;2023-02-28T00:21:16;5.72;;;1.88;;
44646;SDS011;56315;-33.902;151.160;2023-02-28T00:23:44;8.73;;;1.67;;
44646;SDS011;56315;-33.902;151.160;2023-02-28T00:26:12;4.95;;;1.20;;
44646;SDS011;56315;-33.902;151.160;2023-02-28T00:28:39;8.05;;;1.80;;
44646;SDS011;56315;-33.902;151.160;2023-02-28T00:31:06;5.60;;;1.48;;
44646;SDS011;56315;-33.902;151.160;2023-02-28T00:33:33;5.20;;;1.83;;
44646;SDS011;56315;-33.902;151.160;2023-02-28T00:36:02;8.75;;;1.98;;
44646;SDS011;56315;-33.902;151.160;2023-02-28T00:38:31;7.90;;;1.95;;
44646;SDS011;56315;-33.902;151.160;2023-02-28T00:40:58;7.63;;;1.88;;
44646;SDS011;56315;-33.902;151.160;2023-02-28T00:43:30;4.25;;;1.30;;
44646;SDS011;56315;-33.902;151.160;2023-02-28T00:46:02;8.45;;;1.80;;
44646;SDS011;56315;-33.902;151.160;2023-02-28T00:48:30;7.97;;;2.08;;
44646;SDS011;56315;-33.902;151.160;2023-02-28T00:50:57;6.35;;;1.60;;
44646;SDS011;56315;-33.902;151.160;2023-02-28T00:53:25;6.43;;;1.40;;
44646;SDS011;56315;-33.902;151.160;2023-02-28T00:55:52;4.00;;;1.52;;
44646;SDS011;56315;-33.902;151.160;2023-02-28T00:58:20;9.48;;;1.88;;
44646;SDS011;56315;-33.902;151.160;2023-02-28T01:00:47;7.28;;;1.77;;
44646;SDS011;56315;-33.902;151.160;2023-02-28T01:03:15;7.03;;;1.20;;
44646;SDS011;56315;-33.902;151.160;2023-02-28T01:05:44;7.97;;;1.70;;
44646;SDS011;56315;-33.902;151.160;2023-02-28T01:08:12;7.90;;;2.20;;
44646;SDS011;56315;-33.902;151.160;2023-02-28T01:10:40;7.72;;;1.38;;
44646;SDS011;56315;-33.902;151.160;2023-02-28T01:13:07;5.45;;;1.40;;
44646;SDS011;56315;-33.902;151.160;2023-02-28T01:15:35;10.13;;;1.77;;
44646;SDS011;56315;-33.902;151.160;2023-02-28T01:18:02;6.55;;;1.77;;
44646;SDS011;56315;-33.902;151.160;2023-02-28T01:20:30;6.78;;;1.70;;
44646;SDS011;56315;-33.902;151.160;2023-02-28T01:22:57;6.40;;;1.50;;
44646;SDS011;56315;-33.902;151.160;2023-02-28T01:25:24;5.72;;;1.30;;
44646;SDS011;56315;-33.902;151.160;2023-02-28T01:27:52;6.07;;;1.63;;
44646;SDS011;56315;-33.902;151.160;2023-02-28T01:30:19;10.20;;;1.90;;
44646;SDS011;56315;-33.902;151.160;2023-02-28T01:32:46;5.45;;;1.75;;
44646;SDS011;56315;-33.902;151.160;2023-02-28T01:35:14;5.13;;;1.60;;
44646;SDS011;56315;-33.902;151.160;2023-02-28T01:37:41;6.90;;;1.60;;
44646;SDS011;56315;-33.902;151.160;2023-02-28T01:40:08;7.70;;;1.98;;
44646;SDS011;56315;-33.902;151.160;2023-02-28T01:42:36;6.25;;;1.70;;
44646;SDS011;56315;-33.902;151.160;2023-02-28T01:45:06;8.60;;;2.25;;
44646;SDS011;56315;-33.902;151.160;2023-02-28T01:47:44;7.03;;;1.98;;
44646;SDS011;56315;-33.902;151.160;2023-02-28T01:50:15;5.57;;;1.40;;
44646;SDS011;56315;-33.902;151.160;2023-02-28T01:52:49;5.15;;;1.75;;
44646;SDS011;56315;-33.902;151.160;2023-02-28T01:55:18;9.93;;;1.88;;
44646;SDS011;56315;-33.902;151.160;2023-02-28T01:57:52;7.38;;;2.17;;
44646;SDS011;56315;-33.902;151.160;2023-02-28T02:00:23;5.18;;;2.17;;
44646;SDS011;56315;-33.902;151.160;2023-02-28T02:02:56;4.25;;;1.52;;
44646;SDS011;56315;-33.902;151.160;2023-02-28T02:05:31;8.10;;;1.85;;
44646;SDS011;56315;-33.902;151.160;2023-02-28T02:08:04;6.50;;;1.90;;
44646;SDS011;56315;-33.902;151.160;2023-02-28T02:10:35;8.18;;;1.80;;
44646;SDS011;56315;-33.902;151.160;2023-02-28T02:32:09;5.20;;;1.63;;
44646;SDS011;56315;-33.902;151.160;2023-02-28T02:37:34;7.10;;;1.60;;
44646;SDS011;56315;-33.902;151.160;2023-02-28T02:40:22;5.50;;;1.75;;
44646;SDS011;56315;-33.902;151.160;2023-02-28T02:42:59;8.45;;;2.17;;
44646;SDS011;56315;-33.902;151.160;2023-02-28T02:45:34;8.88;;;1.90;;
44646;SDS011;56315;-33.902;151.160;2023-02-28T02:48:11;6.40;;;2.28;;
44646;SDS011;56315;-33.902;151.160;2023-02-28T02:50:43;7.05;;;2.00;;
44646;SDS011;56315;-33.902;151.160;2023-02-28T02:53:16;7.38;;;1.70;;
44646;SDS011;56315;-33.902;151.160;2023-02-28T02:55:48;4.72;;;1.70;;
44646;SDS011;56315;-33.902;151.160;2023-02-28T02:58:21;6.18;;;1.95;;
44646;SDS011;56315;-33.902;151.160;2023-02-28T03:00:54;6.40;;;1.83;;
44646;SDS011;56315;-33.902;151.160;2023-02-28T03:03:24;7.68;;;2.05;;
44646;SDS011;56315;-33.902;151.160;2023-02-28T03:06:11;10.48;;;1.85;;
44646;SDS011;56315;-33.902;151.160;2023-02-28T03:08:38;6.35;;;1.77;;
44646;SDS011;56315;-33.902;151.160;2023-02-28T03:11:06;7.93;;;1.58;;
44646;SDS011;56315;-33.902;151.160;2023-02-28T03:13:47;8.70;;;1.65;;
44646;SDS011;56315;-33.902;151.160;2023-02-28T03:19:11;6.63;;;1.85;;
44646;SDS011;56315;-33.902;151.160;2023-02-28T03:25:32;5.82;;;1.30;;
44646;SDS011;56315;-33.902;151.160;2023-02-28T03:27:47;4.75;;;1.38;;
44646;SDS011;56315;-33.902;151.160;2023-02-28T03:33:16;7.72;;;1.40;;
44646;SDS011;56315;-33.902;151.160;2023-02-28T03:35:53;12.65;;;2.03;;
44646;SDS011;56315;-33.902;151.160;2023-02-28T03:41:22;6.50;;;1.67;;
44646;SDS011;56315;-33.902;151.160;2023-02-28T03:43:54;5.47;;;1.40;;
44646;SDS011;56315;-33.902;151.160;2023-02-28T03:46:42;3.97;;;0.98;;
44646;SDS011;56315;-33.902;151.160;2023-02-28T03:49:23;4.53;;;1.30;;
44646;SDS011;56315;-33.902;151.160;2023-02-28T03:51:54;5.75;;;1.50;;
44646;SDS011;56315;-33.902;151.160;2023-02-28T03:54:29;5.55;;;1.20;;
44646;SDS011;56315;-33.902;151.160;2023-02-28T03:57:04;5.97;;;1.30;;
44646;SDS011;56315;-33.902;151.160;2023-02-28T03:59:36;7.13;;;1.70;;
44646;SDS011;56315;-33.902;151.160;2023-02-28T04:02:12;9.15;;;1.70;;
44646;SDS011;56315;-33.902;151.160;2023-02-28T04:04:39;5.50;;;1.45;;
44646;SDS011;56315;-33.902;151.160;2023-02-28T04:07:10;6.78;;;1.63;;
44646;SDS011;56315;-33.902;151.160;2023-02-28T04:09:38;6.25;;;1.33;;
44646;SDS011;56315;-33.902;151.160;2023-02-28T04:12:05;5.63;;;1.58;;
44646;SDS011;56315;-33.902;151.160;2023-02-28T04:14:33;6.15;;;1.23;;
44646;SDS011;56315;-33.902;151.160;2023-02-28T04:17:00;8.25;;;1.88;;
44646;SDS011;56315;-33.902;151.160;2023-02-28T04:19:27;4.80;;;1.15;;
44646;SDS011;56315;-33.902;151.160;2023-02-28T04:21:55;7.25;;;1.75;;
44646;SDS011;56315;-33.902;151.160;2023-02-28T04:24:26;4.97;;;1.60;;
44646;SDS011;56315;-33.902;151.160;2023-02-28T04:26:55;7.50;;;1.50;;
44646;SDS011;56315;-33.902;151.160;2023-02-28T04:29:29;7.53;;;1.35;;
44646;SDS011;56315;-33.902;151.160;2023-02-28T04:31:58;8.23;;;1.73;;
44646;SDS011;56315;-33.902;151.160;2023-02-28T04:34:27;5.13;;;1.38;;
44646;SDS011;56315;-33.902;151.160;2023-02-28T04:36:55;7.70;;;1.95;;
44646;SDS011;56315;-33.902;151.160;2023-02-28T04:39:23;4.95;;;1.20;;
44646;SDS011;56315;-33.902;151.160;2023-02-28T04:41:51;5.68;;;1.33;;
44646;SDS011;56315;-33.902;151.160;2023-02-28T04:44:18;6.50;;;1.50;;
44646;SDS011;56315;-33.902;151.160;2023-02-28T04:46:47;7.75;;;1.73;;
44646;SDS011;56315;-33.902;151.160;2023-02-28T04:49:15;3.90;;;1.15;;
44646;SDS011;56315;-33.902;151.160;2023-02-28T04:51:43;3.92;;;1.35;;
44646;SDS011;56315;-33.902;151.160;2023-02-28T04:54:10;3.83;;;0.95;;
44646;SDS011;56315;-33.902;151.160;2023-02-28T04:56:38;5.07;;;1.13;;
44646;SDS011;56315;-33.902;151.160;2023-02-28T04:59:06;5.78;;;1.30;;
44646;SDS011;56315;-33.902;151.160;2023-02-28T05:01:33;5.53;;;1.20;;
44646;SDS011;56315;-33.902;151.160;2023-02-28T05:04:02;5.35;;;1.35;;
44646;SDS011;56315;-33.902;151.160;2023-02-28T05:06:31;5.53;;;1.20;;
44646;SDS011;56315;-33.902;151.160;2023-02-28T05:08:59;6.15;;;1.80;;
44646;SDS011;56315;-33.902;151.160;2023-02-28T05:11:30;4.50;;;1.10;;
44646;SDS011;56315;-33.902;151.160;2023-02-28T05:14:03;3.50;;;0.98;;
44646;SDS011;56315;-33.902;151.160;2023-02-28T05:16:31;6.28;;;1.30;;
44646;SDS011;56315;-33.902;151.160;2023-02-28T05:18:59;5.40;;;1.00;;
44646;SDS011;56315;-33.902;151.160;2023-02-28T05:21:34;5.53;;;1.25;;
44646;SDS011;56315;-33.902;151.160;2023-02-28T05:24:06;4.90;;;1.35;;
44646;SDS011;56315;-33.902;151.160;2023-02-28T05:26:38;7.95;;;1.92;;
44646;SDS011;56315;-33.902;151.160;2023-02-28T05:29:07;5.25;;;1.77;;
44646;SDS011;56315;-33.902;151.160;2023-02-28T05:31:35;5.82;;;1.52;;
44646;SDS011;56315;-33.902;151.160;2023-02-28T05:34:02;5.25;;;1.40;;
44646;SDS011;56315;-33.902;151.160;2023-02-28T05:36:32;5.47;;;1.50;;
44646;SDS011;56315;-33.902;151.160;2023-02-28T05:39:02;5.35;;;1.48;;
44646;SDS011;56315;-33.902;151.160;2023-02-28T05:41:31;7.20;;;1.67;;
44646;SDS011;56315;-33.902;151.160;2023-02-28T05:43:58;9.40;;;1.60;;
44646;SDS011;56315;-33.902;151.160;2023-02-28T05:46:26;5.68;;;1.60;;
44646;SDS011;56315;-33.902;151.160;2023-02-28T05:48:54;12.68;;;2.22;;
44646;SDS011;56315;-33.902;151.160;2023-02-28T05:51:23;5.95;;;1.58;;
44646;SDS011;56315;-33.902;151.160;2023-02-28T05:53:50;6.38;;;1.40;;
44646;SDS011;56315;-33.902;151.160;2023-02-28T05:56:17;6.13;;;1.20;;
44646;SDS011;56315;-33.902;151.160;2023-02-28T05:58:44;5.13;;;1.40;;
44646;SDS011;56315;-33.902;151.160;2023-02-28T06:01:22;5.97;;;1.40;;
44646;SDS011;56315;-33.902;151.160;2023-02-28T06:03:59;7.22;;;1.80;;
44646;SDS011;56315;-33.902;151.160;2023-02-28T06:06:27;8.65;;;1.73;;
44646;SDS011;56315;-33.902;151.160;2023-02-28T06:08:55;7.85;;;1.52;;
44646;SDS011;56315;-33.902;151.160;2023-02-28T06:11:23;7.32;;;1.75;;
44646;SDS011;56315;-33.902;151.160;2023-02-28T06:13:54;6.22;;;1.50;;
44646;SDS011;56315;-33.902;151.160;2023-02-28T06:16:23;8.25;;;1.70;;
44646;SDS011;56315;-33.902;151.160;2023-02-28T06:18:50;7.53;;;1.58;;
44646;SDS011;56315;-33.902;151.160;2023-02-28T06:21:21;8.15;;;2.17;;
44646;SDS011;56315;-33.902;151.160;2023-02-28T06:23:49;8.82;;;2.40;;
44646;SDS011;56315;-33.902;151.160;2023-02-28T06:26:17;14.40;;;2.60;;
44646;SDS011;56315;-33.902;151.160;2023-02-28T06:28:44;8.15;;;1.90;;
44646;SDS011;56315;-33.902;151.160;2023-02-28T06:31:13;6.10;;;1.90;;
44646;SDS011;56315;-33.902;151.160;2023-02-28T06:33:42;5.43;;;1.52;;
44646;SDS011;56315;-33.902;151.160;2023-02-28T06:36:11;9.85;;;2.58;;
44646;SDS011;56315;-33.902;151.160;2023-02-28T06:38:39;7.72;;;2.05;;
44646;SDS011;56315;-33.902;151.160;2023-02-28T06:41:08;14.60;;;2.83;;
44646;SDS011;56315;-33.902;151.160;2023-02-28T06:43:39;7.43;;;1.80;;
44646;SDS011;56315;-33.902;151.160;2023-02-28T06:46:09;7.15;;;1.38;;
44646;SDS011;56315;-33.902;151.160;2023-02-28T06:48:39;7.95;;;1.80;;
44646;SDS011;56315;-33.902;151.160;2023-02-28T06:51:08;9.57;;;2.22;;
44646;SDS011;56315;-33.902;151.160;2023-02-28T06:53:46;7.72;;;2.13;;
44646;SDS011;56315;-33.902;151.160;2023-02-28T06:56:14;9.15;;;1.67;;
44646;SDS011;56315;-33.902;151.160;2023-02-28T06:58:45;3.88;;;1.60;;
44646;SDS011;56315;-33.902;151.160;2023-02-28T07:01:14;12.20;;;1.90;;
44646;SDS011;56315;-33.902;151.160;2023-02-28T07:03:41;6.65;;;1.73;;
44646;SDS011;56315;-33.902;151.160;2023-02-28T07:06:09;5.10;;;1.30;;
44646;SDS011;56315;-33.902;151.160;2023-02-28T07:08:36;8.57;;;1.67;;
44646;SDS011;56315;-33.902;151.160;2023-02-28T07:11:05;5.30;;;1.83;;
44646;SDS011;56315;-33.902;151.160;2023-02-28T07:13:32;8.20;;;1.90;;
44646;SDS011;56315;-33.902;151.160;2023-02-28T07:16:01;6.65;;;1.95;;
44646;SDS011;56315;-33.902;151.160;2023-02-28T07:18:30;5.22;;;2.05;;
44646;SDS011;56315;-33.902;151.160;2023-02-28T07:20:58;11.13;;;1.58;;
44646;SDS011;56315;-33.902;151.160;2023-02-28T07:23:27;8.38;;;1.83;;
44646;SDS011;56315;-33.902;151.160;2023-02-28T07:25:55;8.55;;;1.90;;
44646;SDS011;56315;-33.902;151.160;2023-02-28T07:28:22;7.70;;;1.77;;
44646;SDS011;56315;-33.902;151.160;2023-02-28T07:30:49;6.45;;;1.50;;
44646;SDS011;56315;-33.902;151.160;2023-02-28T07:33:17;9.68;;;2.28;;
44646;SDS011;56315;-33.902;151.160;2023-02-28T07:35:44;6.07;;;1.73;;
44646;SDS011;56315;-33.902;151.160;2023-02-28T07:38:11;6.78;;;1.95;;
44646;SDS011;56315;-33.902;151.160;2023-02-28T07:40:39;6.85;;;1.55;;
44646;SDS011;56315;-33.902;151.160;2023-02-28T07:43:06;9.02;;;2.40;;
44646;SDS011;56315;-33.902;151.160;2023-02-28T07:45:33;5.82;;;1.77;;
44646;SDS011;56315;-33.902;151.160;2023-02-28T07:48:01;10.68;;;2.55;;
44646;SDS011;56315;-33.902;151.160;2023-02-28T07:50:28;7.93;;;2.40;;
44646;SDS011;56315;-33.902;151.160;2023-02-28T07:52:57;9.35;;;1.73;;
44646;SDS011;56315;-33.902;151.160;2023-02-28T07:55:25;8.70;;;1.63;;
44646;SDS011;56315;-33.902;151.160;2023-02-28T07:57:52;9.45;;;2.33;;
44646;SDS011;56315;-33.902;151.160;2023-02-28T08:00:19;10.00;;;2.38;;
44646;SDS011;56315;-33.902;151.160;2023-02-28T08:02:47;9.57;;;2.30;;
44646;SDS011;56315;-33.902;151.160;2023-02-28T08:05:14;11.63;;;3.17;;
44646;SDS011;56315;-33.902;151.160;2023-02-28T08:07:42;6.80;;;1.60;;
44646;SDS011;56315;-33.902;151.160;2023-02-28T08:10:09;9.43;;;2.65;;
44646;SDS011;56315;-33.902;151.160;2023-02-28T08:12:36;4.80;;;1.58;;
44646;SDS011;56315;-33.902;151.160;2023-02-28T08:15:04;7.53;;;2.47;;
44646;SDS011;56315;-33.902;151.160;2023-02-28T08:17:31;11.55;;;3.17;;
44646;SDS011;56315;-33.902;151.160;2023-02-28T08:19:59;9.27;;;3.13;;
44646;SDS011;56315;-33.902;151.160;2023-02-28T08:22:26;7.85;;;2.05;;
44646;SDS011;56315;-33.902;151.160;2023-02-28T08:24:53;10.65;;;2.28;;
44646;SDS011;56315;-33.902;151.160;2023-02-28T08:27:20;10.10;;;2.38;;
44646;SDS011;56315;-33.902;151.160;2023-02-28T08:29:48;8.27;;;2.50;;
44646;SDS011;56315;-33.902;151.160;2023-02-28T08:32:15;11.90;;;2.55;;
44646;SDS011;56315;-33.902;151.160;2023-02-28T08:34:42;9.27;;;3.13;;
44646;SDS011;56315;-33.902;151.160;2023-02-28T08:37:09;11.27;;;3.33;;
44646;SDS011;56315;-33.902;151.160;2023-02-28T08:39:37;14.38;;;2.85;;
44646;SDS011;56315;-33.902;151.160;2023-02-28T08:42:04;10.57;;;2.50;;
44646;SDS011;56315;-33.902;151.160;2023-02-28T08:44:32;11.85;;;2.40;;
44646;SDS011;56315;-33.902;151.160;2023-02-28T08:46:59;11.23;;;2.50;;
44646;SDS011;56315;-33.902;151.160;2023-02-28T08:49:26;8.40;;;2.88;;
44646;SDS011;56315;-33.902;151.160;2023-02-28T08:51:56;12.98;;;3.35;;
44646;SDS011;56315;-33.902;151.160;2023-02-28T08:54:24;6.38;;;2.17;;
44646;SDS011;56315;-33.902;151.160;2023-02-28T08:56:51;5.60;;;2.00;;
44646;SDS011;56315;-33.902;151.160;2023-02-28T08:59:18;10.93;;;2.78;;
44646;SDS011;56315;-33.902;151.160;2023-02-28T09:01:46;8.68;;;2.20;;
44646;SDS011;56315;-33.902;151.160;2023-02-28T09:04:13;8.13;;;2.53;;
44646;SDS011;56315;-33.902;151.160;2023-02-28T09:06:40;17.48;;;3.90;;
44646;SDS011;56315;-33.902;151.160;2023-02-28T09:09:07;9.00;;;2.70;;
44646;SDS011;56315;-33.902;151.160;2023-02-28T09:11:35;10.07;;;2.40;;
44646;SDS011;56315;-33.902;151.160;2023-02-28T09:14:02;9.77;;;2.95;;
44646;SDS011;56315;-33.902;151.160;2023-02-28T09:16:30;9.70;;;2.65;;
44646;SDS011;56315;-33.902;151.160;2023-02-28T09:18:58;8.00;;;2.30;;
44646;SDS011;56315;-33.902;151.160;2023-02-28T09:21:26;9.52;;;2.47;;
44646;SDS011;56315;-33.902;151.160;2023-02-28T09:23:53;6.68;;;2.47;;
44646;SDS011;56315;-33.902;151.160;2023-02-28T09:26:22;12.00;;;2.45;;
44646;SDS011;56315;-33.902;151.160;2023-02-28T09:28:53;9.68;;;2.85;;
44646;SDS011;56315;-33.902;151.160;2023-02-28T09:31:23;10.93;;;3.20;;
44646;SDS011;56315;-33.902;151.160;2023-02-28T09:33:52;6.47;;;2.55;;
44646;SDS011;56315;-33.902;151.160;2023-02-28T09:36:25;9.32;;;2.63;;
44646;SDS011;56315;-33.902;151.160;2023-02-28T09:38:53;9.82;;;2.55;;
44646;SDS011;56315;-33.902;151.160;2023-02-28T09:41:32;7.75;;;2.58;;
44646;SDS011;56315;-33.902;151.160;2023-02-28T09:44:31;6.38;;;2.20;;
44646;SDS011;56315;-33.902;151.160;2023-02-28T09:47:46;8.77;;;2.72;;
44646;SDS011;56315;-33.902;151.160;2023-02-28T09:50:43;6.70;;;2.28;;
44646;SDS011;56315;-33.902;151.160;2023-02-28T09:53:02;11.38;;;3.30;;
44646;SDS011;56315;-33.902;151.160;2023-02-28T09:56:07;10.40;;;2.70;;
44646;SDS011;56315;-33.902;151.160;2023-02-28T10:01:10;8.55;;;2.55;;
44646;SDS011;56315;-33.902;151.160;2023-02-28T10:03:54;8.90;;;2.60;;
44646;SDS011;56315;-33.902;151.160;2023-02-28T10:06:33;9.77;;;3.15;;
44646;SDS011;56315;-33.902;151.160;2023-02-28T10:09:13;10.38;;;2.92;;
44646;SDS011;56315;-33.902;151.160;2023-02-28T10:11:48;10.02;;;3.17;;
44646;SDS011;56315;-33.902;151.160;2023-02-28T10:14:19;11.40;;;2.83;;
44646;SDS011;56315;-33.902;151.160;2023-02-28T10:17:05;8.80;;;3.72;;
44646;SDS011;56315;-33.902;151.160;2023-02-28T10:22:58;10.23;;;2.55;;
44646;SDS011;56315;-33.902;151.160;2023-02-28T10:25:48;8.43;;;2.75;;
44646;SDS011;56315;-33.902;151.160;2023-02-28T10:28:45;11.70;;;3.35;;
44646;SDS011;56315;-33.902;151.160;2023-02-28T10:31:17;9.63;;;3.03;;
44646;SDS011;56315;-33.902;151.160;2023-02-28T10:33:45;11.45;;;3.13;;
44646;SDS011;56315;-33.902;151.160;2023-02-28T10:36:14;7.95;;;2.40;;
44646;SDS011;56315;-33.902;151.160;2023-02-28T10:38:45;7.75;;;2.90;;
44646;SDS011;56315;-33.902;151.160;2023-02-28T10:41:14;8.93;;;2.75;;
44646;SDS011;56315;-33.902;151.160;2023-02-28T10:43:53;8.95;;;3.22;;
44646;SDS011;56315;-33.902;151.160;2023-02-28T10:46:41;10.50;;;3.15;;
44646;SDS011;56315;-33.902;151.160;2023-02-28T10:49:14;11.43;;;2.78;;
44646;SDS011;56315;-33.902;151.160;2023-02-28T10:51:41;10.70;;;3.25;;
44646;SDS011;56315;-33.902;151.160;2023-02-28T10:54:16;8.70;;;2.97;;
44646;SDS011;56315;-33.902;151.160;2023-02-28T10:57:35;13.07;;;3.45;;
44646;SDS011;56315;-33.902;151.160;2023-02-28T10:59:53;12.23;;;3.28;;
44646;SDS011;56315;-33.902;151.160;2023-02-28T11:02:40;8.30;;;3.47;;
44646;SDS011;56315;-33.902;151.160;2023-02-28T11:05:31;11.88;;;3.45;;
44646;SDS011;56315;-33.902;151.160;2023-02-28T11:08:33;9.30;;;2.70;;
44646;SDS011;56315;-33.902;151.160;2023-02-28T11:10:54;13.35;;;3.08;;
44646;SDS011;56315;-33.902;151.160;2023-02-28T11:13:32;12.95;;;3.00;;
44646;SDS011;56315;-33.902;151.160;2023-02-28T11:16:05;10.73;;;3.10;;
44646;SDS011;56315;-33.902;151.160;2023-02-28T11:24:02;7.78;;;3.17;;
44646;SDS011;56315;-33.902;151.160;2023-02-28T11:26:39;10.90;;;2.92;;
44646;SDS011;56315;-33.902;151.160;2023-02-28T11:29:12;12.10;;;3.15;;
44646;SDS011;56315;-33.902;151.160;2023-02-28T11:34:42;14.07;;;3.47;;
44646;SDS011;56315;-33.902;151.160;2023-02-28T11:37:14;9.55;;;3.30;;
44646;SDS011;56315;-33.902;151.160;2023-02-28T11:50:26;13.30;;;3.03;;
44646;SDS011;56315;-33.902;151.160;2023-02-28T11:53:21;12.57;;;3.53;;
44646;SDS011;56315;-33.902;151.160;2023-02-28T11:56:10;12.23;;;3.50;;
44646;SDS011;56315;-33.902;151.160;2023-02-28T11:59:10;10.45;;;3.35;;
44646;SDS011;56315;-33.902;151.160;2023-02-28T12:07:20;7.90;;;3.00;;
44646;SDS011;56315;-33.902;151.160;2023-02-28T12:15:50;10.57;;;2.88;;
44646;SDS011;56315;-33.902;151.160;2023-02-28T12:24:10;11.90;;;3.85;;
44646;SDS011;56315;-33.902;151.160;2023-02-28T12:26:42;10.52;;;3.30;;
44646;SDS011;56315;-33.902;151.160;2023-02-28T12:34:39;12.90;;;4.32;;
44646;SDS011;56315;-33.902;151.160;2023-02-28T12:37:15;15.02;;;3.63;;
44646;SDS011;56315;-33.902;151.160;2023-02-28T12:39:50;10.80;;;3.25;;
44646;SDS011;56315;-33.902;151.160;2023-02-28T12:42:26;10.65;;;3.28;;
44646;SDS011;56315;-33.902;151.160;2023-02-28T12:47:38;7.63;;;3.00;;
44646;SDS011;56315;-33.902;151.160;2023-02-28T12:50:11;12.20;;;3.58;;
44646;SDS011;56315;-33.902;151.160;2023-02-28T12:52:47;12.57;;;3.72;;
44646;SDS011;56315;-33.902;151.160;2023-02-28T13:09:15;8.23;;;3.95;;
44646;SDS011;56315;-33.902;151.160;2023-02-28T13:14:19;11.27;;;3.53;;
44646;SDS011;56315;-33.902;151.160;2023-02-28T13:16:48;10.93;;;3.70;;
44646;SDS011;56315;-33.902;151.160;2023-02-28T13:19:24;9.75;;;3.38;;
44646;SDS011;56315;-33.902;151.160;2023-02-28T13:21:54;7.55;;;3.47;;
44646;SDS011;56315;-33.902;151.160;2023-02-28T13:24:37;12.10;;;3.53;;
44646;SDS011;56315;-33.902;151.160;2023-02-28T13:29:36;11.52;;;3.38;;
44646;SDS011;56315;-33.902;151.160;2023-02-28T13:34:38;14.25;;;3.83;;
44646;SDS011;56315;-33.902;151.160;2023-02-28T13:45:26;14.82;;;3.67;;
44646;SDS011;56315;-33.902;151.160;2023-02-28T13:48:05;12.05;;;3.70;;
44646;SDS011;56315;-33.902;151.160;2023-02-28T13:50:44;9.38;;;3.03;;
44646;SDS011;56315;-33.902;151.160;2023-02-28T14:06:26;6.90;;;3.07;;
44646;SDS011;56315;-33.902;151.160;2023-02-28T14:09:06;9.77;;;2.90;;
44646;SDS011;56315;-33.902;151.160;2023-02-28T14:11:58;9.90;;;3.65;;
44646;SDS011;56315;-33.902;151.160;2023-02-28T14:15:03;8.75;;;3.25;;
44646;SDS011;56315;-33.902;151.160;2023-02-28T14:17:53;13.32;;;4.55;;
44646;SDS011;56315;-33.902;151.160;2023-02-28T14:20:22;12.13;;;3.40;;
44646;SDS011;56315;-33.902;151.160;2023-02-28T14:25:39;10.00;;;3.22;;
44646;SDS011;56315;-33.902;151.160;2023-02-28T14:31:23;15.02;;;3.85;;
44646;SDS011;56315;-33.902;151.160;2023-02-28T14:34:13;10.27;;;3.58;;
44646;SDS011;56315;-33.902;151.160;2023-02-28T14:36:52;11.65;;;3.10;;
44646;SDS011;56315;-33.902;151.160;2023-02-28T14:39:24;10.45;;;3.42;;
44646;SDS011;56315;-33.902;151.160;2023-02-28T14:41:56;9.50;;;3.38;;
44646;SDS011;56315;-33.902;151.160;2023-02-28T14:44:30;10.27;;;4.20;;
44646;SDS011;56315;-33.902;151.160;2023-02-28T14:47:01;10.52;;;3.60;;
44646;SDS011;56315;-33.902;151.160;2023-02-28T14:49:35;8.20;;;3.20;;
44646;SDS011;56315;-33.902;151.160;2023-02-28T14:52:19;10.90;;;3.45;;
44646;SDS011;56315;-33.902;151.160;2023-02-28T14:55:05;9.55;;;3.58;;
44646;SDS011;56315;-33.902;151.160;2023-02-28T14:57:43;9.55;;;3.45;;
44646;SDS011;56315;-33.902;151.160;2023-02-28T15:00:35;13.23;;;3.72;;
44646;SDS011;56315;-33.902;151.160;2023-02-28T15:03:19;11.55;;;3.60;;
44646;SDS011;56315;-33.902;151.160;2023-02-28T15:06:31;10.52;;;3.53;;
44646;SDS011;56315;-33.902;151.160;2023-02-28T15:08:43;9.65;;;3.40;;
44646;SDS011;56315;-33.902;151.160;2023-02-28T15:11:17;8.32;;;3.50;;
44646;SDS011;56315;-33.902;151.160;2023-02-28T15:13:53;8.77;;;3.25;;
44646;SDS011;56315;-33.902;151.160;2023-02-28T15:16:22;11.10;;;3.42;;
44646;SDS011;56315;-33.902;151.160;2023-02-28T15:21:27;8.50;;;3.70;;
44646;SDS011;56315;-33.902;151.160;2023-02-28T15:26:34;10.50;;;3.40;;
44646;SDS011;56315;-33.902;151.160;2023-02-28T15:29:10;9.77;;;3.00;;
44646;SDS011;56315;-33.902;151.160;2023-02-28T15:31:44;12.25;;;3.15;;
44646;SDS011;56315;-33.902;151.160;2023-02-28T15:45:51;10.98;;;3.65;;
44646;SDS011;56315;-33.902;151.160;2023-02-28T15:48:34;8.10;;;3.33;;
44646;SDS011;56315;-33.902;151.160;2023-02-28T15:51:18;10.25;;;3.40;;
44646;SDS011;56315;-33.902;151.160;2023-02-28T15:53:54;14.18;;;3.47;;
44646;SDS011;56315;-33.902;151.160;2023-02-28T15:56:32;17.02;;;3.92;;
44646;SDS011;56315;-33.902;151.160;2023-02-28T15:59:28;10.02;;;3.28;;
44646;SDS011;56315;-33.902;151.160;2023-02-28T16:04:36;10.20;;;3.47;;
44646;SDS011;56315;-33.902;151.160;2023-02-28T16:07:20;10.13;;;3.38;;
44646;SDS011;56315;-33.902;151.160;2023-02-28T16:09:47;13.13;;;3.60;;
44646;SDS011;56315;-33.902;151.160;2023-02-28T16:12:14;12.27;;;3.67;;
44646;SDS011;56315;-33.902;151.160;2023-02-28T16:14:42;10.68;;;3.60;;
44646;SDS011;56315;-33.902;151.160;2023-02-28T16:17:20;12.57;;;3.67;;
44646;SDS011;56315;-33.902;151.160;2023-02-28T16:19:49;14.80;;;3.40;;
44646;SDS011;56315;-33.902;151.160;2023-02-28T16:22:17;9.52;;;3.45;;
44646;SDS011;56315;-33.902;151.160;2023-02-28T16:24:44;9.38;;;3.70;;
44646;SDS011;56315;-33.902;151.160;2023-02-28T16:27:30;8.98;;;3.50;;
44646;SDS011;56315;-33.902;151.160;2023-02-28T16:30:02;11.75;;;4.32;;
44646;SDS011;56315;-33.902;151.160;2023-02-28T16:32:32;10.68;;;4.25;;
44646;SDS011;56315;-33.902;151.160;2023-02-28T16:35:02;11.50;;;4.13;;
44646;SDS011;56315;-33.902;151.160;2023-02-28T16:37:31;10.55;;;4.90;;
44646;SDS011;56315;-33.902;151.160;2023-02-28T16:39:59;14.70;;;4.38;;
44646;SDS011;56315;-33.902;151.160;2023-02-28T16:42:27;13.60;;;4.05;;
44646;SDS011;56315;-33.902;151.160;2023-02-28T16:44:55;9.90;;;4.10;;
44646;SDS011;56315;-33.902;151.160;2023-02-28T16:47:23;13.43;;;4.30;;
44646;SDS011;56315;-33.902;151.160;2023-02-28T16:49:52;9.85;;;3.85;;
44646;SDS011;56315;-33.902;151.160;2023-02-28T16:52:19;10.50;;;4.20;;
44646;SDS011;56315;-33.902;151.160;2023-02-28T16:54:47;9.52;;;3.83;;
44646;SDS011;56315;-33.902;151.160;2023-02-28T16:57:19;8.57;;;3.70;;
44646;SDS011;56315;-33.902;151.160;2023-02-28T16:59:49;11.20;;;5.07;;
44646;SDS011;56315;-33.902;151.160;2023-02-28T17:02:16;11.75;;;4.35;;
44646;SDS011;56315;-33.902;151.160;2023-02-28T17:04:47;12.98;;;5.53;;
44646;SDS011;56315;-33.902;151.160;2023-02-28T17:07:15;11.02;;;4.60;;